SNG7080 ZSPD-ZJHK
Flight info
| Callsign | SNG7080 |
|---|---|
| Flight time | N/A |
| Altitude | 32100 |
| Route | NXD W131 AKDIM A470 DUBGO W134 ELNEX A599 PLT W19 NOMAR W18 NLG W23 ZUH R200 BIGRO G221 GIVIV W605 DOMGO |
| Aircraft | A320/M-SDE3FGIJ1KRWXY/LB1 |
Departure
| Time | N/A |
|---|---|
| Airport | Shanghai Pudong International Airport (ZSPD) |
Arrival
| Time | 2026-04-21 15:36 |
|---|---|
| Airport | Haikou Meilan International Airport (ZJHK) |
| Time | Latitude | Longitude | Altitude | Speed | Heading |
|---|---|---|---|---|---|
| 2026-04-21 15:01 | 21.83525 | 112.49169 | 32015 ft | 451 kts | 248° |
| 2026-04-21 15:02 | 21.82296 | 112.46061 | 32019 ft | 451 kts | 248° |
| 2026-04-21 15:02 | 21.79858 | 112.39881 | 32018 ft | 451 kts | 248° |
| 2026-04-21 15:03 | 21.77393 | 112.33657 | 32015 ft | 451 kts | 248° |
| 2026-04-21 15:03 | 21.74931 | 112.27480 | 32015 ft | 451 kts | 248° |
| 2026-04-21 15:04 | 21.72451 | 112.21264 | 32015 ft | 451 kts | 248° |
| 2026-04-21 15:04 | 21.69978 | 112.15046 | 31793 ft | 451 kts | 248° |
| 2026-04-21 15:04 | 21.68759 | 112.11981 | 31677 ft | 452 kts | 248° |
| 2026-04-21 15:05 | 21.67515 | 112.08864 | 31462 ft | 452 kts | 248° |
| 2026-04-21 15:05 | 21.65019 | 112.02648 | 30797 ft | 453 kts | 248° |
| 2026-04-21 15:05 | 21.63765 | 111.99537 | 30451 ft | 454 kts | 248° |
| 2026-04-21 15:06 | 21.62512 | 111.96425 | 30112 ft | 454 kts | 248° |
| 2026-04-21 15:06 | 21.61274 | 111.93344 | 29741 ft | 455 kts | 248° |
| 2026-04-21 15:06 | 21.60018 | 111.90211 | 29337 ft | 456 kts | 248° |
| 2026-04-21 15:06 | 21.58760 | 111.87071 | 28945 ft | 457 kts | 248° |
| 2026-04-21 15:07 | 21.57454 | 111.83955 | 28546 ft | 458 kts | 243° |
| 2026-04-21 15:07 | 21.55655 | 111.81164 | 28170 ft | 463 kts | 230° |
| 2026-04-21 15:07 | 21.53310 | 111.78775 | 27795 ft | 466 kts | 224° |
| 2026-04-21 15:07 | 21.50877 | 111.76459 | 27495 ft | 465 kts | 224° |
| 2026-04-21 15:08 | 21.48438 | 111.74165 | 27257 ft | 468 kts | 223° |
| 2026-04-21 15:08 | 21.45996 | 111.71899 | 27016 ft | 469 kts | 223° |
| 2026-04-21 15:08 | 21.43506 | 111.69609 | 26773 ft | 470 kts | 223° |
| 2026-04-21 15:08 | 21.41012 | 111.67321 | 26524 ft | 471 kts | 223° |
| 2026-04-21 15:09 | 21.38517 | 111.65034 | 26289 ft | 472 kts | 223° |
| 2026-04-21 15:09 | 21.36021 | 111.62745 | 26054 ft | 471 kts | 223° |
| 2026-04-21 15:09 | 21.33556 | 111.60478 | 25819 ft | 470 kts | 223° |
| 2026-04-21 15:09 | 21.31082 | 111.58196 | 25588 ft | 469 kts | 223° |
| 2026-04-21 15:10 | 21.28607 | 111.55908 | 25357 ft | 467 kts | 223° |
| 2026-04-21 15:10 | 21.26145 | 111.53633 | 25126 ft | 466 kts | 223° |
| 2026-04-21 15:10 | 21.23717 | 111.51392 | 24893 ft | 465 kts | 223° |
| 2026-04-21 15:10 | 21.21269 | 111.49138 | 24673 ft | 463 kts | 223° |
| 2026-04-21 15:11 | 21.18823 | 111.46888 | 24454 ft | 462 kts | 223° |
| 2026-04-21 15:11 | 21.16389 | 111.44654 | 24225 ft | 461 kts | 222° |
| 2026-04-21 15:11 | 21.13981 | 111.42446 | 24009 ft | 459 kts | 222° |
| 2026-04-21 15:11 | 21.11554 | 111.40221 | 23790 ft | 458 kts | 222° |
| 2026-04-21 15:12 | 21.09136 | 111.38005 | 23573 ft | 457 kts | 222° |
| 2026-04-21 15:12 | 21.06717 | 111.35786 | 23332 ft | 455 kts | 222° |
| 2026-04-21 15:12 | 21.04314 | 111.33581 | 23070 ft | 454 kts | 222° |
| 2026-04-21 15:12 | 21.01947 | 111.31409 | 22812 ft | 452 kts | 222° |
| 2026-04-21 15:13 | 20.99558 | 111.29220 | 22561 ft | 451 kts | 222° |
| 2026-04-21 15:13 | 20.97170 | 111.27030 | 22306 ft | 449 kts | 222° |
| 2026-04-21 15:13 | 20.94800 | 111.24855 | 22054 ft | 448 kts | 222° |
| 2026-04-21 15:13 | 20.92463 | 111.22710 | 21811 ft | 446 kts | 222° |
| 2026-04-21 15:14 | 20.90105 | 111.20554 | 21555 ft | 445 kts | 222° |
| 2026-04-21 15:14 | 20.87751 | 111.18405 | 21315 ft | 443 kts | 222° |
| 2026-04-21 15:14 | 20.85405 | 111.16265 | 21070 ft | 442 kts | 222° |
| 2026-04-21 15:14 | 20.83094 | 111.14155 | 20833 ft | 441 kts | 222° |
| 2026-04-21 15:15 | 20.80765 | 111.12030 | 20619 ft | 439 kts | 222° |
| 2026-04-21 15:15 | 20.78442 | 111.09910 | 20573 ft | 438 kts | 222° |
| 2026-04-21 15:15 | 20.76119 | 111.07788 | 20591 ft | 439 kts | 222° |
| 2026-04-21 15:15 | 20.73795 | 111.05664 | 20559 ft | 439 kts | 222° |
| 2026-04-21 15:16 | 20.71477 | 111.03549 | 20313 ft | 438 kts | 222° |
| 2026-04-21 15:16 | 20.69186 | 111.01461 | 20083 ft | 437 kts | 222° |
| 2026-04-21 15:16 | 20.66877 | 110.99362 | 19851 ft | 436 kts | 222° |
| 2026-04-21 15:16 | 20.64567 | 110.97262 | 19625 ft | 434 kts | 222° |
| 2026-04-21 15:17 | 20.62271 | 110.95173 | 19390 ft | 433 kts | 222° |
| 2026-04-21 15:17 | 20.59979 | 110.93086 | 19160 ft | 432 kts | 222° |
| 2026-04-21 15:17 | 20.57695 | 110.91007 | 18924 ft | 431 kts | 222° |
| 2026-04-21 15:17 | 20.55443 | 110.88960 | 18714 ft | 429 kts | 222° |
| 2026-04-21 15:18 | 20.53062 | 110.87051 | 18402 ft | 427 kts | 212° |
| 2026-04-21 15:18 | 20.50371 | 110.85694 | 17739 ft | 425 kts | 205° |
| 2026-04-21 15:18 | 20.47660 | 110.84460 | 17146 ft | 420 kts | 205° |
| 2026-04-21 15:18 | 20.44972 | 110.83261 | 16862 ft | 420 kts | 205° |
| 2026-04-21 15:19 | 20.42276 | 110.82067 | 16564 ft | 418 kts | 205° |
| 2026-04-21 15:19 | 20.39627 | 110.80891 | 16214 ft | 416 kts | 205° |
| 2026-04-21 15:19 | 20.36966 | 110.79702 | 15822 ft | 413 kts | 205° |
| 2026-04-21 15:19 | 20.34323 | 110.78516 | 15444 ft | 410 kts | 205° |
| 2026-04-21 15:20 | 20.31708 | 110.77338 | 15066 ft | 407 kts | 205° |
| 2026-04-21 15:20 | 20.29105 | 110.76166 | 14688 ft | 404 kts | 205° |
| 2026-04-21 15:20 | 20.26520 | 110.75005 | 14324 ft | 402 kts | 205° |
| 2026-04-21 15:20 | 20.24270 | 110.73998 | 14001 ft | 399 kts | 205° |
| 2026-04-21 15:21 | 20.21754 | 110.72869 | 13643 ft | 396 kts | 205° |
| 2026-04-21 15:21 | 20.19219 | 110.71729 | 13234 ft | 394 kts | 205° |
| 2026-04-21 15:21 | 20.16701 | 110.70597 | 12830 ft | 391 kts | 205° |
| 2026-04-21 15:21 | 20.14205 | 110.69474 | 12432 ft | 388 kts | 205° |
| 2026-04-21 15:22 | 20.11728 | 110.68361 | 12043 ft | 385 kts | 205° |
| 2026-04-21 15:22 | 20.09265 | 110.67256 | 11662 ft | 383 kts | 204° |
| 2026-04-21 15:22 | 20.06841 | 110.66168 | 11280 ft | 380 kts | 204° |
| 2026-04-21 15:22 | 20.04410 | 110.65078 | 10895 ft | 378 kts | 204° |
| 2026-04-21 15:23 | 20.01995 | 110.63999 | 10519 ft | 375 kts | 204° |
| 2026-04-21 15:23 | 19.99595 | 110.62927 | 10357 ft | 373 kts | 204° |
| 2026-04-21 15:23 | 19.97256 | 110.61880 | 10344 ft | 354 kts | 204° |
| 2026-04-21 15:23 | 19.95047 | 110.60892 | 10339 ft | 334 kts | 204° |
| 2026-04-21 15:24 | 19.92954 | 110.59957 | 10328 ft | 318 kts | 204° |
| 2026-04-21 15:24 | 19.90944 | 110.59050 | 9996 ft | 308 kts | 206° |
| 2026-04-21 15:24 | 19.89165 | 110.57937 | 9652 ft | 294 kts | 217° |
| 2026-04-21 15:24 | 19.87668 | 110.56508 | 9281 ft | 289 kts | 228° |
| 2026-04-21 15:25 | 19.86464 | 110.54804 | 8908 ft | 288 kts | 239° |
| 2026-04-21 15:25 | 19.85600 | 110.52894 | 8576 ft | 283 kts | 250° |
| 2026-04-21 15:25 | 19.85107 | 110.50912 | 8342 ft | 281 kts | 259° |
| 2026-04-21 15:25 | 19.84965 | 110.48841 | 8098 ft | 281 kts | 269° |
| 2026-04-21 15:26 | 19.84969 | 110.46766 | 7934 ft | 280 kts | 268° |
| 2026-04-21 15:26 | 19.84967 | 110.44692 | 7814 ft | 280 kts | 268° |
| 2026-04-21 15:26 | 19.84958 | 110.42620 | 7598 ft | 281 kts | 268° |
| 2026-04-21 15:26 | 19.84947 | 110.40583 | 7352 ft | 278 kts | 268° |
| 2026-04-21 15:27 | 19.84937 | 110.38532 | 7067 ft | 278 kts | 268° |
| 2026-04-21 15:27 | 19.84931 | 110.36474 | 6703 ft | 279 kts | 268° |
| 2026-04-21 15:27 | 19.84926 | 110.34405 | 6411 ft | 277 kts | 268° |
| 2026-04-21 15:27 | 19.84920 | 110.32374 | 6167 ft | 273 kts | 268° |
| 2026-04-21 15:28 | 19.84914 | 110.30386 | 5860 ft | 272 kts | 268° |
| 2026-04-21 15:28 | 19.84908 | 110.28376 | 5536 ft | 271 kts | 268° |
| 2026-04-21 15:28 | 19.84904 | 110.26377 | 5100 ft | 270 kts | 269° |
| 2026-04-21 15:28 | 19.85290 | 110.24428 | 4654 ft | 274 kts | 294° |
| 2026-04-21 15:29 | 19.86487 | 110.22889 | 4288 ft | 275 kts | 323° |
| 2026-04-21 15:29 | 19.88216 | 110.22151 | 4163 ft | 265 kts | 351° |
| 2026-04-21 15:29 | 19.89997 | 110.22002 | 4041 ft | 248 kts | 356° |
| 2026-04-21 15:29 | 19.91667 | 110.21941 | 3915 ft | 232 kts | 357° |
| 2026-04-21 15:30 | 19.93234 | 110.21897 | 3705 ft | 221 kts | 357° |
| 2026-04-21 15:30 | 19.94743 | 110.21870 | 3382 ft | 217 kts | 1° |
| 2026-04-21 15:30 | 19.96170 | 110.22295 | 3034 ft | 214 kts | 36° |
| 2026-04-21 15:30 | 19.97094 | 110.23493 | 2644 ft | 210 kts | 75° |
| 2026-04-21 15:31 | 19.97155 | 110.24972 | 2255 ft | 197 kts | 118° |
| 2026-04-21 15:31 | 19.96480 | 110.26190 | 1936 ft | 190 kts | 126° |
| 2026-04-21 15:31 | 19.95807 | 110.27425 | 1824 ft | 195 kts | 125° |
| 2026-04-21 15:31 | 19.95144 | 110.28656 | 1783 ft | 195 kts | 125° |
| 2026-04-21 15:32 | 19.94469 | 110.29909 | 1793 ft | 192 kts | 125° |
| 2026-04-21 15:32 | 19.93875 | 110.31105 | 1803 ft | 175 kts | 117° |
| 2026-04-21 15:32 | 19.93600 | 110.32306 | 1777 ft | 161 kts | 105° |
| 2026-04-21 15:32 | 19.93506 | 110.33466 | 1809 ft | 153 kts | 102° |
| 2026-04-21 15:33 | 19.93471 | 110.34572 | 1729 ft | 148 kts | 102° |
| 2026-04-21 15:33 | 19.93457 | 110.35665 | 1588 ft | 147 kts | 101° |
| 2026-04-21 15:33 | 19.93453 | 110.36749 | 1415 ft | 145 kts | 99° |
| 2026-04-21 15:33 | 19.93454 | 110.37818 | 1231 ft | 144 kts | 99° |
| 2026-04-21 15:34 | 19.93455 | 110.38883 | 1053 ft | 144 kts | 98° |
| 2026-04-21 15:34 | 19.93458 | 110.39954 | 868 ft | 146 kts | 96° |
| 2026-04-21 15:34 | 19.93462 | 110.41027 | 693 ft | 144 kts | 94° |
| 2026-04-21 15:34 | 19.93466 | 110.42077 | 524 ft | 140 kts | 94° |
| 2026-04-21 15:35 | 19.93469 | 110.43094 | 323 ft | 140 kts | 94° |
| 2026-04-21 15:35 | 19.93478 | 110.44143 | 117 ft | 142 kts | 92° |
| 2026-04-21 15:35 | 19.93476 | 110.45125 | 67 ft | 113 kts | 90° |
| 2026-04-21 15:35 | 19.93476 | 110.45775 | 69 ft | 63 kts | 91° |
| 2026-04-21 15:36 | 19.93508 | 110.46024 | 67 ft | 14 kts | 58° |
| 2026-04-21 15:36 | 19.93516 | 110.46059 | 63 ft | 10 kts | 74° |
| 2026-04-21 15:36 | 19.93555 | 110.46152 | 61 ft | 17 kts | 65° |
| 2026-04-21 15:36 | 19.93612 | 110.46262 | 57 ft | 2 kts | 60° |
| 2026-04-21 15:37 | 19.93628 | 110.46287 | 57 ft | 6 kts | 43° |
| 2026-04-21 15:37 | 19.93679 | 110.46297 | 60 ft | 9 kts | 359° |
| 2026-04-21 15:37 | 19.93751 | 110.46295 | 56 ft | 12 kts | 359° |
| 2026-04-21 15:37 | 19.93815 | 110.46295 | 51 ft | 9 kts | 0° |
| 2026-04-21 15:38 | 19.93884 | 110.46295 | 56 ft | 11 kts | 0° |
| 2026-04-21 15:38 | 19.93936 | 110.46291 | 56 ft | 7 kts | 341° |
| 2026-04-21 15:38 | 19.93955 | 110.46251 | 57 ft | 0 kts | 278° |
| 2026-04-21 15:38 | 19.93954 | 110.46241 | 55 ft | 2 kts | 271° |
| 2026-04-21 15:39 | 19.93955 | 110.46229 | 56 ft | 0 kts | 270° |